RUG weather

Rugby Municipal Airport
Rugby, North Dakota, United States

Public forecast

Using degrees Fahrenheit for public forecast. Weather courtesy of forecast.io.

METAR (pilot weather report)

Retrieved 2019/07/22 11:35 UTC (0 seconds ago):

KRUG 221135Z AUTO 00000KT M1/4SM FG VV000 10/10 A3031 RMK AO2

TAF (pilot weather forecast)

Closest forecast is Devils Lake Regional Airport, 47.6 nm (88.1 km) ESE. Retrieved 2019/07/22 06:22 UTC (5 hours ago):

TAF KDVL 220520Z 2206/2306 VRB04KT P6SM SKC FM222000 VRB04KT P6SM SCT060 FM230200 00000KT P6SM SKC